Latest Weather Observations for Wiluna Airport

IDW60801

Issued at 5:23 am WST Tuesday 7 December 2021 (issued every 10 minutes, with the page automatically refreshed every 10 minutes)

About weather observations | Map of weather stations | Latest weather observations for WA | Other Formats
Station Details ID: 013044 Name: WILUNA AERO Lat: -26.63 Lon: 120.22 Height: 502.4 m
Data from the previous 72 hours. | See also: Recent months at Wiluna Airport
Date/Time
WST
Temp
°C
App
Temp
°C
Dew
Point
°C
Rel
Hum
%
Delta-T
°C
Wind Press
QNH
hPa
Press
MSL
hPa
Rain since
9am
mm
Dir  Spd
km/h
Gust
km/h
Spd
kts
Gust
kts
07/05:00am 21.7 20.8 14.8 65 4.2 SE 13 17 7 9 1011.9 1008.2 1.2
07/04:30am 21.2 20.2 15.7 71 3.4 SE 15 17 8 9 1011.6 1007.9 1.2
07/04:00am 22.2 21.9 15.5 66 4.1 ESE 11 15 6 8 1011.3 1007.6 1.2
07/03:30am 22.4 22.7 16.0 67 3.9 ESE 9 11 5 6 1011.1 1007.4 1.2
07/03:00am 22.6 22.9 15.9 66 4.1 ESE 9 13 5 7 1011.0 1007.2 1.2
07/02:30am 22.5 22.3 15.6 65 4.2 ESE 11 15 6 8 1010.9 1007.1 1.2
07/02:00am 23.3 23.4 15.4 61 4.8 NNE 9 11 5 6 1010.9 1007.1 1.2
07/01:30am 23.1 23.5 15.2 61 4.8 NNE 7 11 4 6 1011.0 1007.2 1.2
07/01:00am 24.1 24.4 14.5 55 5.8 NE 6 7 3 4 1011.0 1007.2 1.2
07/12:30am 24.9 24.6 14.4 52 6.4 NE 9 13 5 7 1010.9 1007.1 1.2
07/12:00am 25.7 24.6 14.2 49 7.0 NE 13 17 7 9 1011.0 1007.2 1.2
 
Date/Time
WST
Temp
°C
App
Temp
°C
Dew
Point
°C
Rel
Hum
%
Delta-T
°C
Wind Press
QNH
hPa
Press
MSL
hPa
Rain since
9am
mm
Dir  Spd
km/h
Gust
km/h
Spd
kts
Gust
kts
06/11:30pm 25.7 24.7 14.5 50 6.8 ENE 13 17 7 9 1011.3 1007.6 1.2
06/11:00pm 25.7 24.8 14.8 51 6.7 ESE 13 15 7 8 1011.7 1008.0 1.2
06/10:30pm 25.4 25.4 17.1 60 5.3 SE 13 15 7 8 1012.1 1008.4 1.2
06/10:00pm 27.2 27.8 13.2 42 8.4 NE 2 7 1 4 1012.7 1008.9 1.2
06/09:30pm 27.2 25.8 13.5 42 8.3 NNE 13 17 7 9 1012.1 1008.4 1.2
06/09:00pm 27.4 25.9 14.1 44 8.1 ENE 15 20 8 11 1011.4 1007.7 1.2
06/08:30pm 27.8 25.6 13.3 40 8.7 ENE 17 28 9 15 1011.1 1007.4 1.2
06/08:00pm 28.4 23.2 12.7 38 9.4 E 32 39 17 21 1011.0 1007.2 1.2
06/07:30pm 28.5 24.1 12.8 38 9.4 E 28 46 15 25 1011.1 1007.4 1.2
06/07:13pm 28.6 23.7 12.5 37 9.6 ENE 30 48 16 26 1010.6 1006.8 1.2
06/07:00pm 28.1 24.8 14.0 42 8.6 ENE 24 37 13 20 1010.7 1006.9 1.2
06/06:30pm 28.1 23.5 14.7 44 8.3 ESE 32 43 17 23 1010.4 1006.6 1.2
06/06:15pm 27.2 22.5 15.9 50 7.1 ESE 35 44 19 24 1009.9 1006.2 1.2
06/06:07pm 26.5 21.0 16.7 55 6.2 SSE 41 48 22 26 1009.8 1006.1 1.2
06/06:00pm 26.9 22.9 18.5 60 5.5 SSE 37 46 20 25 1010.1 1006.3 1.2
06/05:45pm 29.5 26.2 14.9 41 9.1 SE 26 37 14 20 1011.2 1007.5 0.8
06/05:30pm 31.1 25.2 10.4 28 12.1 ESE 32 39 17 21 1009.7 1006.0 0.8
06/05:00pm 30.8 24.9 11.2 30 11.6 ESE 33 44 18 24 1009.1 1005.3 0.8
06/04:44pm 31.0 24.9 11.9 31 11.4 ESE 35 43 19 23 1009.1 1005.3 0.8
06/04:34pm 31.7 27.4 12.0 30 11.8 SE 26 37 14 20 1009.1 1005.3 0.8
06/04:30pm 31.7 27.0 12.0 30 11.8 SSE 28 37 15 20 1009.1 1005.3 0.8
06/04:25pm 31.2 27.6 13.0 33 11.1 SSE 24 37 13 20 1008.9 1005.1 0.8
06/04:00pm 30.5 27.5 12.4 33 10.9 NW 20 35 11 19 1008.8 1005.0 0.8
06/03:55pm 29.6 27.7 14.2 39 9.5 WSW 17 28 9 15 1009.0 1005.2 0.8
06/03:30pm 36.5 30.6 7.5 17 16.6 ESE 28 39 15 21 1007.6 1003.9 0.0
06/03:07pm 37.0 31.5 6.1 15 17.4 ENE 24 44 13 24 1007.1 1003.3 0.0
06/03:00pm 37.2 32.7 6.3 15 17.5 ENE 19 44 10 24 1007.4 1003.7 0.0
06/02:30pm 38.9 34.1 5.5 13 18.8 ESE 20 32 11 17 1007.7 1004.0 0.0
06/02:00pm 38.4 33.3 6.2 14 18.3 NE 22 35 12 19 1008.3 1004.5 0.0
06/01:30pm 39.3 34.7 5.8 13 18.9 E 19 32 10 17 1008.7 1004.9 0.0
06/01:00pm 37.2 32.3 5.3 14 17.7 ENE 20 39 11 21 1009.1 1005.3 0.0
06/12:30pm 37.5 33.1 6.5 15 17.6 E 19 28 10 15 1009.5 1005.8 0.0
06/12:00pm 37.9 34.3 6.8 15 17.7 ENE 15 30 8 16 1009.7 1006.0 0.0
06/11:30am 37.0 32.5 7.0 16 17.1 ENE 20 30 11 16 1010.1 1006.3 0.0
06/11:00am 36.3 32.1 7.4 17 16.5 E 19 26 10 14 1010.6 1006.8 0.0
06/10:30am 35.9 31.4 7.0 17 16.4 ENE 20 28 11 15 1010.9 1007.1 0.0
06/10:00am 34.6 30.1 6.8 18 15.6 ENE 20 30 11 16 1011.2 1007.5 0.0
06/09:30am 34.1 29.8 8.0 20 14.9 ENE 20 30 11 16 1011.4 1007.7 0.0
06/09:00am 32.9 27.8 7.7 21 14.2 ENE 24 35 13 19 1011.7 1008.0 0.0
06/08:30am 32.5 27.7 8.7 23 13.6 ENE 24 33 13 18 1011.8 1008.1 0.0
06/08:00am 31.0 26.2 8.7 25 12.7 ENE 24 32 13 17 1011.9 1008.2 0.0
06/07:30am 30.1 25.0 9.1 27 12.0 ENE 26 35 14 19 1011.7 1008.0 0.0
06/07:00am 29.1 24.6 8.7 28 11.5 ENE 22 30 12 16 1011.4 1007.7 0.0
06/06:30am 27.8 24.6 8.6 30 10.7 ENE 15 22 8 12 1011.2 1007.5 0.0
06/06:00am 26.6 23.8 8.6 32 10.0 E 13 17 7 9 1011.3 1007.6 0.0
06/05:30am 24.5 21.6 8.0 35 9.0 ESE 13 15 7 8 1011.0 1007.2 0.0
06/05:00am 24.1 21.8 8.9 38 8.4 SE 11 13 6 7 1010.7 1006.9 0.0
06/04:30am 26.0 23.5 8.0 32 9.9 E 11 15 6 8 1010.3 1006.5 0.0
06/04:00am 25.3 23.0 7.4 32 9.7 ESE 9 11 5 6 1009.8 1006.1 0.0
06/03:30am 24.9 22.5 7.1 32 9.5 SSE 9 9 5 5 1009.5 1005.8 0.0
06/03:00am 25.5 23.1 7.1 31 9.9 SSE 9 13 5 7 1009.1 1005.3 0.0
06/02:30am 25.7 23.9 7.8 32 9.8 SSE 7 9 4 5 1008.8 1005.0 0.0
06/02:00am 26.2 23.1 7.3 30 10.3 SSE 13 15 7 8 1008.7 1004.9 0.0
06/01:30am 27.6 24.6 7.5 28 11.0 ESE 13 15 7 8 1008.8 1005.0 0.0
06/01:00am 28.4 25.1 6.5 25 11.9 ESE 13 15 7 8 1008.9 1005.1 0.0
06/12:30am 29.9 26.2 6.5 23 12.8 E 15 20 8 11 1009.1 1005.3 0.0
06/12:00am 29.9 25.9 6.5 23 12.8 ESE 17 22 9 12 1009.2 1005.5 0.0
 
Date/Time
WST
Temp
°C
App
Temp
°C
Dew
Point
°C
Rel
Hum
%
Delta-T
°C
Wind Press
QNH
hPa
Press
MSL
hPa
Rain since
9am
mm
Dir  Spd
km/h
Gust
km/h
Spd
kts
Gust
kts
05/11:30pm 30.3 26.4 6.9 23 12.9 ESE 17 20 9 11 1009.4 1005.7 0.0
05/11:00pm 31.2 26.9 7.0 22 13.4 E 19 24 10 13 1009.6 1005.9 0.0
05/10:30pm 31.8 26.9 6.8 21 13.8 ESE 22 28 12 15 1009.8 1006.1 0.0
05/10:00pm 31.7 27.9 7.4 22 13.6 ESE 17 20 9 11 1010.1 1006.3 0.0
05/09:30pm 32.5 27.7 7.4 21 14.1 ESE 22 30 12 16 1010.1 1006.3 0.0
05/09:00pm 32.8 28.6 7.6 21 14.2 ESE 19 24 10 13 1009.9 1006.2 0.0
05/08:30pm 33.0 28.9 7.8 21 14.3 ESE 19 22 10 12 1009.6 1005.9 0.0
05/08:00pm 33.3 29.8 7.3 20 14.6 ESE 15 20 8 11 1009.5 1005.8 0.0
05/07:30pm 34.0 30.3 7.9 20 14.9 SE 17 20 9 11 1009.3 1005.6 0.0
05/07:00pm 34.7 30.6 7.7 19 15.4 SE 19 22 10 12 1009.0 1005.2 0.0
05/06:30pm 35.6 30.5 7.6 18 16.0 SE 24 30 13 16 1008.8 1005.0 0.0
05/06:00pm 36.4 31.6 7.4 17 16.6 SE 22 28 12 15 1008.7 1004.9 0.0
05/05:30pm 37.1 32.8 7.1 16 17.1 SSE 19 24 10 13 1008.4 1004.6 0.0
05/05:00pm 36.5 32.5 6.6 16 16.9 SE 17 26 9 14 1008.4 1004.6 0.0
05/04:30pm 37.9 35.1 6.8 15 17.7 ESE 11 24 6 13 1008.4 1004.6 0.0
05/04:00pm 38.3 34.4 7.1 15 17.9 S 17 28 9 15 1008.3 1004.5 0.0
05/03:30pm 37.9 35.1 6.8 15 17.7 NE 11 22 6 12 1008.7 1004.9 0.0
05/03:00pm 37.4 35.1 7.3 16 17.3 SE 9 20 5 11 1008.9 1005.1 0.0
05/02:30pm 37.5 33.3 7.4 16 17.3 SE 19 32 10 17 1009.2 1005.5 0.0
05/02:00pm 37.4 34.3 7.3 16 17.3 SE 13 24 7 13 1009.7 1006.0 0.0
05/01:30pm 36.1 32.6 7.2 17 16.4 ENE 15 26 8 14 1010.1 1006.3 0.0
05/01:00pm 35.9 32.9 7.9 18 16.1 E 13 30 7 16 1010.6 1006.8 0.0
05/12:30pm 35.5 31.7 7.6 18 15.9 E 17 32 9 17 1011.2 1007.5 0.0
05/12:00pm 34.7 30.7 8.4 20 15.1 E 19 30 10 16 1011.6 1007.9 0.0
05/11:30am 34.0 29.9 8.6 21 14.6 E 20 30 11 16 1012.1 1008.4 0.0
05/11:00am 34.1 30.5 10.0 23 14.2 NE 19 30 10 16 1012.5 1008.7 0.0
05/10:30am 32.0 28.5 10.1 26 12.8 E 19 30 10 16 1013.0 1009.3 0.0
05/10:00am 31.5 28.2 10.8 28 12.2 ENE 19 26 10 14 1013.6 1009.9 0.0
05/09:30am 29.9 27.1 11.4 32 10.9 ENE 17 26 9 14 1013.9 1010.2 0.0
05/09:00am 29.3 26.3 11.8 34 10.4 E 19 26 10 14 1014.1 1010.4 0.0
05/08:30am 28.1 24.9 12.0 36 9.5 ESE 20 28 11 15 1014.6 1010.8 0.0
05/08:00am 26.9 24.5 12.5 40 8.5 E 17 24 9 13 1014.7 1011.0 0.0
05/07:30am 26.0 23.8 13.2 45 7.7 ESE 17 24 9 13 1014.8 1011.1 0.0
05/07:00am 24.9 22.4 13.5 49 6.8 ESE 19 24 10 13 1014.7 1011.0 0.0
05/06:30am 24.2 21.6 13.7 52 6.3 ESE 20 26 11 14 1014.5 1010.7 0.0
05/06:00am 23.6 20.9 12.9 51 6.3 ESE 19 22 10 12 1014.5 1010.7 0.0
05/05:30am 23.1 21.0 12.4 51 6.2 ESE 15 19 8 10 1014.2 1010.5 0.0
05/05:00am 23.4 21.3 12.4 50 6.4 E 15 20 8 11 1014.0 1010.3 0.0
05/04:30am 23.7 21.1 12.0 47 6.8 E 17 22 9 12 1013.6 1009.9 0.0
05/04:00am 24.1 22.0 12.4 48 6.8 E 15 22 8 12 1013.1 1009.4 0.0
05/03:30am 24.4 21.6 12.7 48 6.9 E 19 22 10 12 1013.0 1009.3 0.0
05/03:00am 24.8 22.5 13.0 47 7.0 E 17 22 9 12 1012.6 1008.8 0.0
05/02:30am 25.0 22.7 12.9 47 7.2 ESE 17 22 9 12 1012.5 1008.7 0.0
05/02:00am 25.6 22.6 12.1 43 7.9 ESE 19 24 10 13 1012.4 1008.6 0.0
05/01:30am 26.5 24.0 11.0 38 9.0 E 15 20 8 11 1012.7 1008.9 0.0
05/01:00am 27.0 23.4 9.8 34 9.8 E 19 30 10 16 1012.3 1008.5 0.0
05/12:30am 27.5 23.9 9.8 33 10.1 ENE 19 24 10 13 1012.3 1008.5 0.0
05/12:00am 27.8 24.1 9.6 32 10.3 ENE 19 28 10 15 1012.6 1008.8 0.0
 
Date/Time
WST
Temp
°C
App
Temp
°C
Dew
Point
°C
Rel
Hum
%
Delta-T
°C
Wind Press
QNH
hPa
Press
MSL
hPa
Rain since
9am
mm
Dir  Spd
km/h
Gust
km/h
Spd
kts
Gust
kts
04/11:30pm 28.1 24.6 10.3 33 10.2 ENE 19 26 10 14 1013.0 1009.3 0.0
04/11:00pm 28.4 24.8 10.6 33 10.3 ENE 20 26 11 14 1013.2 1009.5 0.0
04/10:30pm 28.7 25.2 10.8 33 10.4 ENE 20 30 11 16 1013.3 1009.6 0.0
04/10:00pm 29.2 25.9 10.8 32 10.7 ENE 19 26 10 14 1013.4 1009.7 0.0
04/09:30pm 29.7 26.2 10.8 31 11.0 ENE 20 28 11 15 1013.3 1009.6 0.0
04/09:00pm 30.3 26.0 10.8 30 11.4 ENE 24 33 13 18 1013.0 1009.3 0.0
04/08:30pm 30.7 26.7 10.6 29 11.8 ENE 22 33 12 18 1012.8 1009.0 0.0
04/08:00pm 31.4 26.7 10.7 28 12.2 ENE 26 35 14 19 1012.7 1008.9 0.0
04/07:30pm 32.0 28.3 10.1 26 12.8 ENE 20 30 11 16 1012.6 1008.8 0.0
04/07:00pm 32.7 28.6 10.1 25 13.2 ENE 22 32 12 17 1012.3 1008.5 0.0
04/06:30pm 33.6 29.9 10.2 24 13.8 ENE 20 26 11 14 1011.9 1008.2 0.0
04/06:00pm 34.1 29.6 10.0 23 14.2 ENE 24 32 13 17 1011.4 1007.7 0.0
04/05:30pm 35.0 29.4 10.1 22 14.7 ESE 30 41 16 22 1010.9 1007.1 0.0
04/05:00pm 35.2 31.3 9.6 21 15.1 ENE 20 30 11 16 1010.7 1006.9 0.0
04/04:30pm 36.0 32.1 9.5 20 15.6 ESE 20 30 11 16 1010.6 1006.8 0.0
04/04:00pm 36.1 32.4 9.6 20 15.6 ENE 19 28 10 15 1010.5 1006.7 0.0
04/03:30pm 35.7 31.2 10.0 21 15.2 E 24 35 13 19 1010.5 1006.7 0.0
04/03:00pm 36.5 32.9 9.9 20 15.8 ENE 19 32 10 17 1010.6 1006.8 0.0
04/02:30pm 36.1 30.7 9.6 20 15.6 E 28 44 15 24 1010.9 1007.1 0.0
04/02:00pm 35.8 31.7 10.1 21 15.3 ENE 22 33 12 18 1011.3 1007.6 0.0
04/01:30pm 34.8 30.6 9.9 22 14.7 ENE 22 33 12 18 1011.7 1008.0 0.0
04/01:00pm 35.5 30.6 9.8 21 15.2 E 26 43 14 23 1012.3 1008.5 0.0
04/12:30pm 34.6 29.3 9.8 22 14.6 E 28 46 15 25 1012.6 1008.8 0.0
04/12:00pm 35.2 29.4 9.6 21 15.0 E 30 50 16 27 1013.2 1009.5 0.0
04/11:30am 33.4 27.2 9.4 23 13.9 E 32 52 17 28 1013.6 1009.9 0.0
04/11:04am 34.2 28.2 8.8 21 14.7 E 30 50 16 27 1013.9 1010.2 0.0
04/11:00am 33.8 27.5 9.1 22 14.3 E 32 44 17 24 1013.9 1010.2 0.0
04/10:30am 33.4 26.1 8.8 22 14.2 E 37 48 20 26 1014.2 1010.5 0.0
04/10:00am 32.6 24.9 8.8 23 13.6 E 39 54 21 29 1014.6 1010.8 0.0
04/09:38am 32.0 25.0 8.3 23 13.4 E 35 54 19 29 1014.5 1010.7 0.0
04/09:30am 31.3 22.7 8.3 24 13.0 E 43 54 23 29 1014.5 1010.7 0.0
04/09:07am 31.2 23.6 7.6 23 13.2 ENE 37 59 20 32 1014.7 1011.0 0.0
04/09:00am 30.8 22.9 7.9 24 12.8 ENE 39 56 21 30 1014.7 1011.0 0.0
04/08:30am 30.3 22.3 7.5 24 12.7 ENE 39 59 21 32 1014.6 1010.8 0.0
04/08:09am 29.2 21.3 7.7 26 11.9 ENE 39 57 21 31 1014.5 1010.7 0.0
04/08:00am 29.2 21.3 7.7 26 11.9 ENE 39 54 21 29 1014.5 1010.7 0.0
04/07:30am 27.9 21.0 7.2 27 11.3 E 33 48 18 26 1014.1 1010.4 0.0
04/07:04am 25.7 18.9 7.8 32 9.8 ENE 33 54 18 29 1014.2 1010.5 0.0
04/07:00am 25.5 19.6 7.6 32 9.7 ENE 28 43 15 23 1014.5 1010.7 0.0
04/06:30am 25.5 20.0 7.6 32 9.7 E 26 43 14 23 1014.6 1010.8 0.0
04/06:00am 24.9 21.9 7.5 33 9.4 ESE 13 19 7 10 1015.9 1012.2 0.0
04/05:30am 24.4 20.0 7.5 34 9.1 E 20 26 11 14 1014.8 1011.1 0.0

Other formats

Comma delimited format used in spreadsheet applications
http://www.bom.gov.au/fwo/IDW60801/IDW60801.95439.axf

JavaScript Object Notation format (JSON) in row-major order
http://www.bom.gov.au/fwo/IDW60801/IDW60801.95439.json

Data quality

Most of these data are generated automatically and are frequently updated. Quality checks on data are not normally performed. It is possible for incorrect values to appear. Refer to information at About Latest Weather Observations and please check the disclaimer before using these data.